sensor_id;sensor_type;location;lat;lon;timestamp;P1;durP1;ratioP1;P2;durP2;ratioP2
69981;SDS011;57319;56.274;43.980;2023-02-22T00:00:41;24.90;;;11.10;;
69981;SDS011;57319;56.274;43.980;2023-02-22T00:03:18;19.42;;;9.40;;
69981;SDS011;57319;56.274;43.980;2023-02-22T00:05:52;22.77;;;10.75;;
69981;SDS011;57319;56.274;43.980;2023-02-22T00:08:27;26.52;;;8.40;;
69981;SDS011;57319;56.274;43.980;2023-02-22T00:11:12;21.10;;;9.45;;
69981;SDS011;57319;56.274;43.980;2023-02-22T00:13:38;27.77;;;9.35;;
69981;SDS011;57319;56.274;43.980;2023-02-22T00:16:08;22.98;;;8.88;;
69981;SDS011;57319;56.274;43.980;2023-02-22T00:18:37;35.28;;;10.63;;
69981;SDS011;57319;56.274;43.980;2023-02-22T00:21:02;17.35;;;9.00;;
69981;SDS011;57319;56.274;43.980;2023-02-22T00:23:29;25.80;;;9.73;;
69981;SDS011;57319;56.274;43.980;2023-02-22T00:25:57;19.83;;;9.32;;
69981;SDS011;57319;56.274;43.980;2023-02-22T00:28:23;18.80;;;8.98;;
69981;SDS011;57319;56.274;43.980;2023-02-22T00:30:50;23.13;;;9.57;;
69981;SDS011;57319;56.274;43.980;2023-02-22T00:33:16;20.50;;;9.60;;
69981;SDS011;57319;56.274;43.980;2023-02-22T00:35:43;25.52;;;9.88;;
69981;SDS011;57319;56.274;43.980;2023-02-22T00:38:13;28.33;;;10.82;;
69981;SDS011;57319;56.274;43.980;2023-02-22T00:40:40;20.33;;;10.30;;
69981;SDS011;57319;56.274;43.980;2023-02-22T00:43:06;22.52;;;9.98;;
69981;SDS011;57319;56.274;43.980;2023-02-22T00:45:32;21.02;;;8.45;;
69981;SDS011;57319;56.274;43.980;2023-02-22T00:47:59;16.92;;;7.50;;
69981;SDS011;57319;56.274;43.980;2023-02-22T00:50:27;22.45;;;8.95;;
69981;SDS011;57319;56.274;43.980;2023-02-22T00:52:54;25.38;;;10.05;;
69981;SDS011;57319;56.274;43.980;2023-02-22T00:55:25;27.77;;;10.77;;
69981;SDS011;57319;56.274;43.980;2023-02-22T00:57:52;7.38;;;5.22;;
69981;SDS011;57319;56.274;43.980;2023-02-22T01:00:27;25.38;;;7.57;;
69981;SDS011;57319;56.274;43.980;2023-02-22T01:02:54;18.83;;;9.70;;
69981;SDS011;57319;56.274;43.980;2023-02-22T01:05:22;27.25;;;9.60;;
69981;SDS011;57319;56.274;43.980;2023-02-22T01:07:50;28.20;;;11.25;;
69981;SDS011;57319;56.274;43.980;2023-02-22T01:10:17;20.00;;;8.85;;
69981;SDS011;57319;56.274;43.980;2023-02-22T01:12:44;23.25;;;11.25;;
69981;SDS011;57319;56.274;43.980;2023-02-22T01:15:11;26.83;;;11.45;;
69981;SDS011;57319;56.274;43.980;2023-02-22T01:17:38;34.58;;;10.75;;
69981;SDS011;57319;56.274;43.980;2023-02-22T01:20:06;38.45;;;11.35;;
69981;SDS011;57319;56.274;43.980;2023-02-22T01:22:39;25.50;;;10.40;;
69981;SDS011;57319;56.274;43.980;2023-02-22T01:25:06;21.75;;;9.88;;
69981;SDS011;57319;56.274;43.980;2023-02-22T01:27:33;27.20;;;10.45;;
69981;SDS011;57319;56.274;43.980;2023-02-22T01:29:59;29.02;;;12.20;;
69981;SDS011;57319;56.274;43.980;2023-02-22T01:32:25;21.00;;;9.75;;
69981;SDS011;57319;56.274;43.980;2023-02-22T01:34:54;20.33;;;8.55;;
69981;SDS011;57319;56.274;43.980;2023-02-22T01:37:19;24.50;;;9.75;;
69981;SDS011;57319;56.274;43.980;2023-02-22T01:39:45;25.95;;;10.80;;
69981;SDS011;57319;56.274;43.980;2023-02-22T01:42:11;24.75;;;10.95;;
69981;SDS011;57319;56.274;43.980;2023-02-22T01:44:37;25.20;;;10.77;;
69981;SDS011;57319;56.274;43.980;2023-02-22T01:47:05;28.90;;;11.18;;
69981;SDS011;57319;56.274;43.980;2023-02-22T01:49:46;26.50;;;9.95;;
69981;SDS011;57319;56.274;43.980;2023-02-22T01:52:17;24.48;;;10.55;;
69981;SDS011;57319;56.274;43.980;2023-02-22T01:54:49;22.17;;;9.45;;
69981;SDS011;57319;56.274;43.980;2023-02-22T01:57:27;19.48;;;9.80;;
69981;SDS011;57319;56.274;43.980;2023-02-22T01:59:57;25.42;;;10.02;;
69981;SDS011;57319;56.274;43.980;2023-02-22T02:02:26;22.00;;;10.90;;
69981;SDS011;57319;56.274;43.980;2023-02-22T02:04:53;21.00;;;9.15;;
69981;SDS011;57319;56.274;43.980;2023-02-22T02:07:20;19.05;;;8.05;;
69981;SDS011;57319;56.274;43.980;2023-02-22T02:09:51;28.60;;;10.68;;
69981;SDS011;57319;56.274;43.980;2023-02-22T02:12:17;24.38;;;10.80;;
69981;SDS011;57319;56.274;43.980;2023-02-22T02:14:45;26.42;;;10.20;;
69981;SDS011;57319;56.274;43.980;2023-02-22T02:17:11;23.88;;;10.73;;
69981;SDS011;57319;56.274;43.980;2023-02-22T02:34:34;20.85;;;8.93;;
69981;SDS011;57319;56.274;43.980;2023-02-22T02:37:11;25.23;;;10.30;;
69981;SDS011;57319;56.274;43.980;2023-02-22T02:39:44;30.52;;;8.80;;
69981;SDS011;57319;56.274;43.980;2023-02-22T02:42:19;32.65;;;10.38;;
69981;SDS011;57319;56.274;43.980;2023-02-22T02:44:50;15.73;;;8.77;;
69981;SDS011;57319;56.274;43.980;2023-02-22T02:47:21;22.83;;;9.98;;
69981;SDS011;57319;56.274;43.980;2023-02-22T02:49:56;21.23;;;10.32;;
69981;SDS011;57319;56.274;43.980;2023-02-22T02:52:30;33.75;;;10.43;;
69981;SDS011;57319;56.274;43.980;2023-02-22T02:54:58;21.45;;;8.30;;
69981;SDS011;57319;56.274;43.980;2023-02-22T02:57:27;29.83;;;10.57;;
69981;SDS011;57319;56.274;43.980;2023-02-22T02:59:52;21.60;;;10.00;;
69981;SDS011;57319;56.274;43.980;2023-02-22T03:02:21;26.08;;;10.95;;
69981;SDS011;57319;56.274;43.980;2023-02-22T03:18:28;19.65;;;9.93;;
69981;SDS011;57319;56.274;43.980;2023-02-22T03:21:08;31.88;;;11.02;;
69981;SDS011;57319;56.274;43.980;2023-02-22T03:26:33;23.80;;;10.32;;
69981;SDS011;57319;56.274;43.980;2023-02-22T03:29:04;28.83;;;10.02;;
69981;SDS011;57319;56.274;43.980;2023-02-22T03:31:33;26.58;;;10.38;;
69981;SDS011;57319;56.274;43.980;2023-02-22T03:34:12;31.25;;;10.98;;
69981;SDS011;57319;56.274;43.980;2023-02-22T03:36:44;25.40;;;11.75;;
69981;SDS011;57319;56.274;43.980;2023-02-22T03:39:14;21.00;;;8.70;;
69981;SDS011;57319;56.274;43.980;2023-02-22T03:41:43;18.27;;;9.13;;
69981;SDS011;57319;56.274;43.980;2023-02-22T03:44:17;20.23;;;11.30;;
69981;SDS011;57319;56.274;43.980;2023-02-22T03:46:47;20.98;;;9.98;;
69981;SDS011;57319;56.274;43.980;2023-02-22T03:52:02;28.00;;;10.82;;
69981;SDS011;57319;56.274;43.980;2023-02-22T03:54:29;26.98;;;11.02;;
69981;SDS011;57319;56.274;43.980;2023-02-22T03:56:57;33.65;;;11.43;;
69981;SDS011;57319;56.274;43.980;2023-02-22T03:59:28;25.77;;;10.77;;
69981;SDS011;57319;56.274;43.980;2023-02-22T04:01:55;24.75;;;11.07;;
69981;SDS011;57319;56.274;43.980;2023-02-22T04:04:22;19.40;;;9.82;;
69981;SDS011;57319;56.274;43.980;2023-02-22T04:06:48;22.42;;;10.60;;
69981;SDS011;57319;56.274;43.980;2023-02-22T04:09:15;27.45;;;10.80;;
69981;SDS011;57319;56.274;43.980;2023-02-22T04:11:41;23.42;;;10.38;;
69981;SDS011;57319;56.274;43.980;2023-02-22T04:14:07;17.88;;;9.35;;
69981;SDS011;57319;56.274;43.980;2023-02-22T04:16:33;24.08;;;10.95;;
69981;SDS011;57319;56.274;43.980;2023-02-22T04:18:58;20.65;;;9.82;;
69981;SDS011;57319;56.274;43.980;2023-02-22T04:21:24;33.28;;;12.55;;
69981;SDS011;57319;56.274;43.980;2023-02-22T04:23:50;22.23;;;11.55;;
69981;SDS011;57319;56.274;43.980;2023-02-22T04:26:16;38.17;;;11.20;;
69981;SDS011;57319;56.274;43.980;2023-02-22T04:28:42;29.23;;;11.82;;
69981;SDS011;57319;56.274;43.980;2023-02-22T04:31:07;27.70;;;11.45;;
69981;SDS011;57319;56.274;43.980;2023-02-22T04:33:33;30.08;;;10.82;;
69981;SDS011;57319;56.274;43.980;2023-02-22T04:35:59;22.40;;;9.98;;
69981;SDS011;57319;56.274;43.980;2023-02-22T04:38:25;27.15;;;11.23;;
69981;SDS011;57319;56.274;43.980;2023-02-22T04:40:51;24.23;;;10.15;;
69981;SDS011;57319;56.274;43.980;2023-02-22T04:43:17;22.98;;;11.93;;
69981;SDS011;57319;56.274;43.980;2023-02-22T04:45:43;24.58;;;10.07;;
69981;SDS011;57319;56.274;43.980;2023-02-22T04:48:09;21.63;;;10.93;;
69981;SDS011;57319;56.274;43.980;2023-02-22T04:50:35;22.20;;;9.00;;
69981;SDS011;57319;56.274;43.980;2023-02-22T04:53:01;27.33;;;8.82;;
69981;SDS011;57319;56.274;43.980;2023-02-22T04:55:27;22.92;;;9.68;;
69981;SDS011;57319;56.274;43.980;2023-02-22T04:57:53;26.10;;;9.85;;
69981;SDS011;57319;56.274;43.980;2023-02-22T05:00:20;28.42;;;11.32;;
69981;SDS011;57319;56.274;43.980;2023-02-22T05:02:46;18.95;;;10.68;;
69981;SDS011;57319;56.274;43.980;2023-02-22T05:05:13;19.00;;;8.60;;
69981;SDS011;57319;56.274;43.980;2023-02-22T05:07:40;38.20;;;13.02;;
69981;SDS011;57319;56.274;43.980;2023-02-22T05:10:06;21.23;;;8.77;;
69981;SDS011;57319;56.274;43.980;2023-02-22T05:12:33;20.40;;;9.55;;
69981;SDS011;57319;56.274;43.980;2023-02-22T05:15:00;19.95;;;9.93;;
69981;SDS011;57319;56.274;43.980;2023-02-22T05:17:26;29.63;;;10.45;;
69981;SDS011;57319;56.274;43.980;2023-02-22T05:19:52;20.27;;;9.23;;
69981;SDS011;57319;56.274;43.980;2023-02-22T05:22:17;13.57;;;6.68;;
69981;SDS011;57319;56.274;43.980;2023-02-22T05:24:43;31.23;;;8.75;;
69981;SDS011;57319;56.274;43.980;2023-02-22T05:27:09;19.08;;;8.95;;
69981;SDS011;57319;56.274;43.980;2023-02-22T05:29:34;17.77;;;8.98;;
69981;SDS011;57319;56.274;43.980;2023-02-22T05:32:03;29.05;;;8.98;;
69981;SDS011;57319;56.274;43.980;2023-02-22T05:34:31;20.85;;;9.32;;
69981;SDS011;57319;56.274;43.980;2023-02-22T05:36:56;25.88;;;8.73;;
69981;SDS011;57319;56.274;43.980;2023-02-22T05:39:22;15.02;;;7.90;;
69981;SDS011;57319;56.274;43.980;2023-02-22T05:41:48;24.58;;;9.52;;
69981;SDS011;57319;56.274;43.980;2023-02-22T05:44:13;18.23;;;9.05;;
69981;SDS011;57319;56.274;43.980;2023-02-22T05:46:39;24.67;;;9.30;;
69981;SDS011;57319;56.274;43.980;2023-02-22T05:49:04;15.50;;;7.03;;
69981;SDS011;57319;56.274;43.980;2023-02-22T05:51:30;24.58;;;9.43;;
69981;SDS011;57319;56.274;43.980;2023-02-22T05:53:57;26.70;;;9.15;;
69981;SDS011;57319;56.274;43.980;2023-02-22T05:56:24;23.52;;;9.23;;
69981;SDS011;57319;56.274;43.980;2023-02-22T05:58:51;16.80;;;7.60;;
69981;SDS011;57319;56.274;43.980;2023-02-22T06:01:18;22.77;;;8.45;;
69981;SDS011;57319;56.274;43.980;2023-02-22T06:03:46;21.83;;;8.43;;
69981;SDS011;57319;56.274;43.980;2023-02-22T06:06:14;19.30;;;7.85;;
69981;SDS011;57319;56.274;43.980;2023-02-22T06:08:41;26.20;;;8.35;;
69981;SDS011;57319;56.274;43.980;2023-02-22T06:11:07;12.95;;;7.68;;
69981;SDS011;57319;56.274;43.980;2023-02-22T06:13:34;21.33;;;8.88;;
69981;SDS011;57319;56.274;43.980;2023-02-22T06:16:01;20.20;;;7.85;;
69981;SDS011;57319;56.274;43.980;2023-02-22T06:18:27;15.90;;;7.85;;
69981;SDS011;57319;56.274;43.980;2023-02-22T06:20:55;9.85;;;5.30;;
69981;SDS011;57319;56.274;43.980;2023-02-22T06:23:24;18.88;;;7.45;;
69981;SDS011;57319;56.274;43.980;2023-02-22T06:25:50;17.17;;;6.35;;
69981;SDS011;57319;56.274;43.980;2023-02-22T06:28:16;11.95;;;7.10;;
69981;SDS011;57319;56.274;43.980;2023-02-22T06:30:41;19.55;;;9.40;;
69981;SDS011;57319;56.274;43.980;2023-02-22T06:33:07;14.98;;;7.07;;
69981;SDS011;57319;56.274;43.980;2023-02-22T06:35:34;13.18;;;6.53;;
69981;SDS011;57319;56.274;43.980;2023-02-22T06:38:00;6.57;;;4.85;;
69981;SDS011;57319;56.274;43.980;2023-02-22T06:40:25;10.82;;;6.88;;
69981;SDS011;57319;56.274;43.980;2023-02-22T06:42:54;24.92;;;6.53;;
69981;SDS011;57319;56.274;43.980;2023-02-22T06:45:21;17.45;;;7.22;;
69981;SDS011;57319;56.274;43.980;2023-02-22T06:47:47;14.20;;;7.00;;
69981;SDS011;57319;56.274;43.980;2023-02-22T06:50:18;18.35;;;6.15;;
69981;SDS011;57319;56.274;43.980;2023-02-22T06:52:46;18.33;;;7.80;;
69981;SDS011;57319;56.274;43.980;2023-02-22T06:55:15;13.57;;;7.22;;
69981;SDS011;57319;56.274;43.980;2023-02-22T06:57:41;10.15;;;6.45;;
69981;SDS011;57319;56.274;43.980;2023-02-22T07:00:07;11.85;;;6.90;;
69981;SDS011;57319;56.274;43.980;2023-02-22T07:02:34;18.27;;;7.68;;
69981;SDS011;57319;56.274;43.980;2023-02-22T07:04:59;16.17;;;7.20;;
69981;SDS011;57319;56.274;43.980;2023-02-22T07:07:25;17.90;;;7.40;;
69981;SDS011;57319;56.274;43.980;2023-02-22T07:09:51;9.35;;;4.18;;
69981;SDS011;57319;56.274;43.980;2023-02-22T07:12:17;17.60;;;7.32;;
69981;SDS011;57319;56.274;43.980;2023-02-22T07:14:43;18.02;;;7.70;;
69981;SDS011;57319;56.274;43.980;2023-02-22T07:17:08;20.42;;;8.23;;
69981;SDS011;57319;56.274;43.980;2023-02-22T07:19:35;7.20;;;5.25;;
69981;SDS011;57319;56.274;43.980;2023-02-22T07:22:01;18.02;;;7.97;;
69981;SDS011;57319;56.274;43.980;2023-02-22T07:24:27;22.80;;;7.97;;
69981;SDS011;57319;56.274;43.980;2023-02-22T07:26:52;16.95;;;8.13;;
69981;SDS011;57319;56.274;43.980;2023-02-22T07:29:18;12.40;;;7.00;;
69981;SDS011;57319;56.274;43.980;2023-02-22T07:31:46;19.30;;;8.98;;
69981;SDS011;57319;56.274;43.980;2023-02-22T07:34:12;15.68;;;8.25;;
69981;SDS011;57319;56.274;43.980;2023-02-22T07:36:38;14.70;;;8.07;;
69981;SDS011;57319;56.274;43.980;2023-02-22T07:39:04;14.60;;;5.82;;
69981;SDS011;57319;56.274;43.980;2023-02-22T07:41:33;11.35;;;6.38;;
69981;SDS011;57319;56.274;43.980;2023-02-22T07:43:58;13.15;;;7.68;;
69981;SDS011;57319;56.274;43.980;2023-02-22T07:46:24;10.38;;;6.68;;
69981;SDS011;57319;56.274;43.980;2023-02-22T07:48:50;20.77;;;7.80;;
69981;SDS011;57319;56.274;43.980;2023-02-22T07:51:16;16.15;;;6.72;;
69981;SDS011;57319;56.274;43.980;2023-02-22T07:53:44;14.68;;;7.22;;
69981;SDS011;57319;56.274;43.980;2023-02-22T07:56:10;16.52;;;7.97;;
69981;SDS011;57319;56.274;43.980;2023-02-22T07:58:36;16.13;;;8.82;;
69981;SDS011;57319;56.274;43.980;2023-02-22T08:01:02;16.45;;;7.30;;
69981;SDS011;57319;56.274;43.980;2023-02-22T08:03:30;13.65;;;6.20;;
69981;SDS011;57319;56.274;43.980;2023-02-22T08:06:00;23.33;;;7.38;;
69981;SDS011;57319;56.274;43.980;2023-02-22T08:08:27;17.52;;;7.85;;
69981;SDS011;57319;56.274;43.980;2023-02-22T08:10:53;13.88;;;6.63;;
69981;SDS011;57319;56.274;43.980;2023-02-22T08:13:20;15.57;;;7.65;;
69981;SDS011;57319;56.274;43.980;2023-02-22T08:15:46;14.30;;;7.72;;
69981;SDS011;57319;56.274;43.980;2023-02-22T08:18:14;15.45;;;7.65;;
69981;SDS011;57319;56.274;43.980;2023-02-22T08:20:43;8.50;;;5.32;;
69981;SDS011;57319;56.274;43.980;2023-02-22T08:23:11;15.75;;;7.75;;
69981;SDS011;57319;56.274;43.980;2023-02-22T08:25:39;22.73;;;7.50;;
69981;SDS011;57319;56.274;43.980;2023-02-22T08:28:15;16.63;;;6.68;;
69981;SDS011;57319;56.274;43.980;2023-02-22T08:30:44;22.67;;;8.80;;
69981;SDS011;57319;56.274;43.980;2023-02-22T08:33:11;16.58;;;6.57;;
69981;SDS011;57319;56.274;43.980;2023-02-22T08:35:43;16.42;;;9.00;;
69981;SDS011;57319;56.274;43.980;2023-02-22T08:38:30;11.98;;;5.93;;
69981;SDS011;57319;56.274;43.980;2023-02-22T08:40:58;15.57;;;7.07;;
69981;SDS011;57319;56.274;43.980;2023-02-22T08:43:24;15.57;;;6.72;;
69981;SDS011;57319;56.274;43.980;2023-02-22T08:45:49;17.98;;;8.18;;
69981;SDS011;57319;56.274;43.980;2023-02-22T08:48:16;16.52;;;7.63;;
69981;SDS011;57319;56.274;43.980;2023-02-22T08:50:42;21.73;;;7.13;;
69981;SDS011;57319;56.274;43.980;2023-02-22T08:53:08;14.88;;;6.93;;
69981;SDS011;57319;56.274;43.980;2023-02-22T08:55:36;13.85;;;5.85;;
69981;SDS011;57319;56.274;43.980;2023-02-22T08:58:04;16.90;;;6.97;;
69981;SDS011;57319;56.274;43.980;2023-02-22T09:00:33;10.85;;;5.07;;
69981;SDS011;57319;56.274;43.980;2023-02-22T09:03:00;12.23;;;6.80;;
69981;SDS011;57319;56.274;43.980;2023-02-22T09:05:30;15.25;;;6.45;;
69981;SDS011;57319;56.274;43.980;2023-02-22T09:07:55;18.75;;;7.65;;
69981;SDS011;57319;56.274;43.980;2023-02-22T09:10:23;16.27;;;7.05;;
69981;SDS011;57319;56.274;43.980;2023-02-22T09:12:52;17.85;;;6.28;;
69981;SDS011;57319;56.274;43.980;2023-02-22T09:15:22;16.13;;;6.97;;
69981;SDS011;57319;56.274;43.980;2023-02-22T09:17:49;13.82;;;7.15;;
69981;SDS011;57319;56.274;43.980;2023-02-22T09:20:16;23.20;;;8.88;;
69981;SDS011;57319;56.274;43.980;2023-02-22T09:22:44;12.95;;;7.05;;
69981;SDS011;57319;56.274;43.980;2023-02-22T09:25:10;14.65;;;7.22;;
69981;SDS011;57319;56.274;43.980;2023-02-22T09:27:36;22.30;;;9.30;;
69981;SDS011;57319;56.274;43.980;2023-02-22T09:30:03;24.38;;;8.45;;
69981;SDS011;57319;56.274;43.980;2023-02-22T09:32:29;15.10;;;7.38;;
69981;SDS011;57319;56.274;43.980;2023-02-22T09:34:56;22.13;;;8.32;;
69981;SDS011;57319;56.274;43.980;2023-02-22T09:37:21;15.98;;;8.27;;
69981;SDS011;57319;56.274;43.980;2023-02-22T09:39:47;14.45;;;6.80;;
69981;SDS011;57319;56.274;43.980;2023-02-22T09:47:40;14.63;;;7.22;;
69981;SDS011;57319;56.274;43.980;2023-02-22T09:50:19;23.35;;;9.57;;
69981;SDS011;57319;56.274;43.980;2023-02-22T09:57:55;15.30;;;6.55;;
69981;SDS011;57319;56.274;43.980;2023-02-22T10:00:35;14.75;;;6.70;;
69981;SDS011;57319;56.274;43.980;2023-02-22T10:06:31;18.42;;;9.00;;
69981;SDS011;57319;56.274;43.980;2023-02-22T10:08:39;12.57;;;7.55;;
69981;SDS011;57319;56.274;43.980;2023-02-22T10:11:18;12.52;;;7.93;;
69981;SDS011;57319;56.274;43.980;2023-02-22T10:17:28;21.73;;;8.57;;
69981;SDS011;57319;56.274;43.980;2023-02-22T10:25:27;24.02;;;8.18;;
69981;SDS011;57319;56.274;43.980;2023-02-22T10:28:10;13.63;;;7.45;;
69981;SDS011;57319;56.274;43.980;2023-02-22T10:30:44;13.97;;;7.77;;
69981;SDS011;57319;56.274;43.980;2023-02-22T10:35:46;21.20;;;8.55;;
69981;SDS011;57319;56.274;43.980;2023-02-22T10:38:23;17.95;;;8.43;;
69981;SDS011;57319;56.274;43.980;2023-02-22T10:41:30;20.35;;;8.35;;
69981;SDS011;57319;56.274;43.980;2023-02-22T10:43:52;16.98;;;7.65;;
69981;SDS011;57319;56.274;43.980;2023-02-22T10:46:17;21.70;;;8.43;;
69981;SDS011;57319;56.274;43.980;2023-02-22T10:48:47;20.98;;;8.02;;
69981;SDS011;57319;56.274;43.980;2023-02-22T10:51:16;21.25;;;9.63;;
69981;SDS011;57319;56.274;43.980;2023-02-22T10:53:42;29.27;;;9.20;;
69981;SDS011;57319;56.274;43.980;2023-02-22T10:58:42;15.32;;;7.45;;
69981;SDS011;57319;56.274;43.980;2023-02-22T11:01:32;18.30;;;9.25;;
69981;SDS011;57319;56.274;43.980;2023-02-22T11:04:15;15.98;;;7.78;;
69981;SDS011;57319;56.274;43.980;2023-02-22T11:06:44;22.65;;;8.73;;
69981;SDS011;57319;56.274;43.980;2023-02-22T11:09:13;22.08;;;8.80;;
69981;SDS011;57319;56.274;43.980;2023-02-22T11:11:47;22.15;;;7.95;;
69981;SDS011;57319;56.274;43.980;2023-02-22T11:14:34;12.68;;;7.15;;
69981;SDS011;57319;56.274;43.980;2023-02-22T11:16:59;26.77;;;8.57;;
69981;SDS011;57319;56.274;43.980;2023-02-22T11:19:31;13.32;;;7.55;;
69981;SDS011;57319;56.274;43.980;2023-02-22T11:24:29;18.88;;;7.90;;
69981;SDS011;57319;56.274;43.980;2023-02-22T11:26:57;19.70;;;7.97;;
69981;SDS011;57319;56.274;43.980;2023-02-22T11:29:33;18.40;;;8.23;;
69981;SDS011;57319;56.274;43.980;2023-02-22T11:32:11;20.05;;;8.40;;
69981;SDS011;57319;56.274;43.980;2023-02-22T11:34:40;20.33;;;8.43;;
69981;SDS011;57319;56.274;43.980;2023-02-22T11:40:13;14.93;;;7.75;;
69981;SDS011;57319;56.274;43.980;2023-02-22T11:42:42;24.48;;;8.10;;
69981;SDS011;57319;56.274;43.980;2023-02-22T11:56:30;10.55;;;5.80;;
69981;SDS011;57319;56.274;43.980;2023-02-22T12:19:43;16.45;;;6.97;;
69981;SDS011;57319;56.274;43.980;2023-02-22T12:22:11;19.60;;;7.43;;
69981;SDS011;57319;56.274;43.980;2023-02-22T12:24:43;9.30;;;5.70;;
69981;SDS011;57319;56.274;43.980;2023-02-22T12:27:14;17.52;;;7.55;;
69981;SDS011;57319;56.274;43.980;2023-02-22T12:29:45;11.82;;;6.45;;
69981;SDS011;57319;56.274;43.980;2023-02-22T12:32:32;13.52;;;6.55;;
69981;SDS011;57319;56.274;43.980;2023-02-22T12:38:27;13.80;;;5.88;;
69981;SDS011;57319;56.274;43.980;2023-02-22T12:48:54;8.27;;;4.65;;
69981;SDS011;57319;56.274;43.980;2023-02-22T12:56:42;4.10;;;3.17;;
69981;SDS011;57319;56.274;43.980;2023-02-22T13:01:57;11.90;;;5.47;;
69981;SDS011;57319;56.274;43.980;2023-02-22T13:04:34;11.95;;;5.32;;
69981;SDS011;57319;56.274;43.980;2023-02-22T13:07:14;13.60;;;6.72;;
69981;SDS011;57319;56.274;43.980;2023-02-22T13:13:07;14.05;;;6.68;;
69981;SDS011;57319;56.274;43.980;2023-02-22T13:15:41;15.65;;;6.43;;
69981;SDS011;57319;56.274;43.980;2023-02-22T13:18:17;11.75;;;4.70;;
69981;SDS011;57319;56.274;43.980;2023-02-22T13:28:45;12.68;;;6.55;;
69981;SDS011;57319;56.274;43.980;2023-02-22T13:39:22;10.43;;;6.10;;
69981;SDS011;57319;56.274;43.980;2023-02-22T13:42:12;11.85;;;5.55;;
69981;SDS011;57319;56.274;43.980;2023-02-22T13:50:17;8.27;;;5.82;;
69981;SDS011;57319;56.274;43.980;2023-02-22T13:52:46;9.65;;;5.38;;
69981;SDS011;57319;56.274;43.980;2023-02-22T13:55:18;8.25;;;4.82;;
69981;SDS011;57319;56.274;43.980;2023-02-22T13:58:03;10.70;;;5.68;;
69981;SDS011;57319;56.274;43.980;2023-02-22T14:00:50;21.50;;;7.25;;
69981;SDS011;57319;56.274;43.980;2023-02-22T14:03:31;13.60;;;6.13;;
69981;SDS011;57319;56.274;43.980;2023-02-22T14:06:08;17.55;;;6.90;;
69981;SDS011;57319;56.274;43.980;2023-02-22T14:08:54;14.25;;;6.60;;
69981;SDS011;57319;56.274;43.980;2023-02-22T14:16:23;12.85;;;6.47;;
69981;SDS011;57319;56.274;43.980;2023-02-22T14:19:03;20.13;;;7.25;;
69981;SDS011;57319;56.274;43.980;2023-02-22T14:21:53;20.38;;;6.55;;
69981;SDS011;57319;56.274;43.980;2023-02-22T14:24:21;8.57;;;5.07;;
69981;SDS011;57319;56.274;43.980;2023-02-22T14:29:21;19.73;;;7.07;;
69981;SDS011;57319;56.274;43.980;2023-02-22T14:34:15;14.32;;;6.22;;
69981;SDS011;57319;56.274;43.980;2023-02-22T14:36:45;18.48;;;5.57;;
69981;SDS011;57319;56.274;43.980;2023-02-22T14:39:38;11.13;;;5.18;;
69981;SDS011;57319;56.274;43.980;2023-02-22T14:42:11;9.88;;;5.97;;
69981;SDS011;57319;56.274;43.980;2023-02-22T14:47:47;13.77;;;5.30;;
69981;SDS011;57319;56.274;43.980;2023-02-22T14:50:32;6.50;;;4.20;;
69981;SDS011;57319;56.274;43.980;2023-02-22T14:53:16;15.43;;;6.35;;
69981;SDS011;57319;56.274;43.980;2023-02-22T14:55:51;16.55;;;6.03;;
69981;SDS011;57319;56.274;43.980;2023-02-22T14:58:23;9.68;;;6.13;;
69981;SDS011;57319;56.274;43.980;2023-02-22T15:00:56;9.10;;;4.88;;
69981;SDS011;57319;56.274;43.980;2023-02-22T15:03:27;11.90;;;6.05;;
69981;SDS011;57319;56.274;43.980;2023-02-22T15:08:31;16.10;;;6.15;;
69981;SDS011;57319;56.274;43.980;2023-02-22T15:10:58;9.43;;;5.03;;
69981;SDS011;57319;56.274;43.980;2023-02-22T15:13:27;7.28;;;5.10;;
69981;SDS011;57319;56.274;43.980;2023-02-22T15:15:59;7.55;;;5.13;;
69981;SDS011;57319;56.274;43.980;2023-02-22T15:18:40;7.78;;;4.97;;
69981;SDS011;57319;56.274;43.980;2023-02-22T15:21:09;9.68;;;5.35;;
69981;SDS011;57319;56.274;43.980;2023-02-22T15:23:50;12.38;;;5.15;;
69981;SDS011;57319;56.274;43.980;2023-02-22T15:26:23;6.18;;;4.28;;
69981;SDS011;57319;56.274;43.980;2023-02-22T15:28:54;12.35;;;5.38;;
69981;SDS011;57319;56.274;43.980;2023-02-22T15:33:52;5.90;;;4.35;;
69981;SDS011;57319;56.274;43.980;2023-02-22T15:36:20;8.68;;;5.78;;
69981;SDS011;57319;56.274;43.980;2023-02-22T15:38:51;12.55;;;6.18;;
69981;SDS011;57319;56.274;43.980;2023-02-22T15:41:21;7.95;;;4.85;;
69981;SDS011;57319;56.274;43.980;2023-02-22T15:44:08;12.73;;;4.97;;
69981;SDS011;57319;56.274;43.980;2023-02-22T15:46:36;7.03;;;4.50;;
69981;SDS011;57319;56.274;43.980;2023-02-22T15:49:26;7.80;;;3.88;;
69981;SDS011;57319;56.274;43.980;2023-02-22T15:52:03;4.20;;;3.25;;
69981;SDS011;57319;56.274;43.980;2023-02-22T15:54:50;11.25;;;5.25;;
69981;SDS011;57319;56.274;43.980;2023-02-22T15:57:17;11.10;;;5.18;;
69981;SDS011;57319;56.274;43.980;2023-02-22T15:59:50;11.15;;;5.68;;
69981;SDS011;57319;56.274;43.980;2023-02-22T16:02:18;10.70;;;4.82;;
69981;SDS011;57319;56.274;43.980;2023-02-22T16:05:09;7.30;;;5.00;;
69981;SDS011;57319;56.274;43.980;2023-02-22T16:07:41;6.53;;;4.53;;
69981;SDS011;57319;56.274;43.980;2023-02-22T16:10:21;7.88;;;4.32;;
69981;SDS011;57319;56.274;43.980;2023-02-22T16:12:49;14.32;;;4.82;;
69981;SDS011;57319;56.274;43.980;2023-02-22T16:15:30;10.40;;;5.15;;
69981;SDS011;57319;56.274;43.980;2023-02-22T16:17:56;6.55;;;4.53;;
69981;SDS011;57319;56.274;43.980;2023-02-22T16:22:51;5.70;;;4.00;;
69981;SDS011;57319;56.274;43.980;2023-02-22T16:25:29;8.15;;;5.43;;
69981;SDS011;57319;56.274;43.980;2023-02-22T16:27:58;11.95;;;5.05;;
69981;SDS011;57319;56.274;43.980;2023-02-22T16:30:37;7.68;;;4.72;;
69981;SDS011;57319;56.274;43.980;2023-02-22T16:33:05;8.73;;;4.80;;
69981;SDS011;57319;56.274;43.980;2023-02-22T16:35:41;11.43;;;4.75;;
69981;SDS011;57319;56.274;43.980;2023-02-22T16:38:16;9.60;;;5.38;;
69981;SDS011;57319;56.274;43.980;2023-02-22T16:40:49;10.82;;;4.22;;
69981;SDS011;57319;56.274;43.980;2023-02-22T16:43:22;6.85;;;3.42;;
69981;SDS011;57319;56.274;43.980;2023-02-22T16:45:50;8.27;;;5.22;;
69981;SDS011;57319;56.274;43.980;2023-02-22T16:48:18;12.65;;;5.45;;
69981;SDS011;57319;56.274;43.980;2023-02-22T16:50:43;13.18;;;5.82;;
69981;SDS011;57319;56.274;43.980;2023-02-22T16:53:10;8.75;;;5.10;;
69981;SDS011;57319;56.274;43.980;2023-02-22T16:55:36;7.43;;;4.53;;
69981;SDS011;57319;56.274;43.980;2023-02-22T16:58:02;9.27;;;6.25;;
69981;SDS011;57319;56.274;43.980;2023-02-22T17:00:29;12.23;;;5.35;;
69981;SDS011;57319;56.274;43.980;2023-02-22T17:03:02;10.27;;;4.68;;
69981;SDS011;57319;56.274;43.980;2023-02-22T17:05:29;10.27;;;5.45;;
69981;SDS011;57319;56.274;43.980;2023-02-22T17:08:00;8.48;;;5.32;;
69981;SDS011;57319;56.274;43.980;2023-02-22T17:10:27;9.63;;;4.88;;
69981;SDS011;57319;56.274;43.980;2023-02-22T17:12:53;8.65;;;4.45;;
69981;SDS011;57319;56.274;43.980;2023-02-22T17:15:30;9.73;;;4.55;;
69981;SDS011;57319;56.274;43.980;2023-02-22T17:17:57;6.88;;;4.53;;
69981;SDS011;57319;56.274;43.980;2023-02-22T17:20:23;6.78;;;4.40;;